< < Back
Terminal Aerodrome Forecast


Current Version              Previous Versions:   1  2  3  4  5  6  7  8  9  

Terminal Aerodrome Forecast

536
FTUS44 KMRX 010525
TAFCHA
TAF
KCHA 010525Z 0106/0206 13003KT P6SM OVC100
     FM011600 16008KT P6SM BKN025
     FM012000 17012KT 4SM -RA OVC012
     FM020000 18012KT 2SM RA OVC007=

Latest METAR

355
SAUS80 KWBC 011400 RRG
MTRCHA
METAR KCHA 011353Z 00000KT 10SM SCT110 BKN160 04/M01 A3015 RMK AO2
SLP211 T00441006


USA.gov is the U.S. government's official web portal to all federal, state and local government web resources and services.